Lancaster, Ohio
Current Conditions -  °F | °C
As of 3:10 AM on Monday 24 Nov 2014 (Local Time) from KLHQ Reporting Station
Overcast Overcast  
Wind Chill: 59°   Ceiling: 4200
Heat Index: 59°   Visibility: 10mi
Dew Point: 54°   Wind: 16mph
Humidity: 83%   Direction: 210°SSW
Pressure: 29.36"   Gusts: 32mph
Location:  39.71°N, 82.6°W
Report Text: KLHQ 240810Z AUTO 21014G28KT 10SM FEW026 OVC042 15/12 A2936 RMK AO2 PK WND 20028/0806 RAE04 P0000 T01500122
Loading
Personal Weather Stations






























Interactive Weather Map New forecast layout! Learn more

10-Day Weather Forecast

Advertisements
Track Severe Weather on mobile